createdAt,value
2023-11-21T00:00:18.776Z,99300.47
2023-11-21T00:02:47.099Z,99303.19
2023-11-21T00:05:16.107Z,99305.84
2023-11-21T00:07:46.108Z,99306.81
2023-11-21T00:10:16.911Z,99303.41
2023-11-21T00:12:45.020Z,99302.66
2023-11-21T00:15:16.417Z,99305.22
2023-11-21T00:17:44.707Z,99296.72
2023-11-21T00:20:15.109Z,99292.41
2023-11-21T00:22:43.810Z,99294.16
2023-11-21T00:25:16.096Z,99288.13
2023-11-21T00:27:44.084Z,99289.09
2023-11-21T00:30:14.212Z,99292.47
2023-11-21T00:32:42.088Z,99286.44
2023-11-21T00:35:10.236Z,99283.88
2023-11-21T00:37:40.042Z,99284.66
2023-11-21T00:40:10.285Z,99291.50
2023-11-21T00:42:39.487Z,99301.78
2023-11-21T00:45:09.071Z,99306.13
2023-11-21T00:47:36.763Z,99301.88
2023-11-21T00:50:07.044Z,99299.41
2023-11-21T00:52:34.716Z,99289.13
2023-11-21T00:55:02.641Z,99292.59
2023-11-21T00:57:30.455Z,99296.00
2023-11-21T00:59:59.431Z,99288.34
2023-11-21T01:02:27.370Z,99292.69
2023-11-21T01:04:54.957Z,99290.91
2023-11-21T01:07:23.577Z,99285.72
2023-11-21T01:09:52.177Z,99290.06
2023-11-21T01:12:19.960Z,99294.25
2023-11-21T01:14:47.602Z,99290.91
2023-11-21T01:17:16.595Z,99295.13
2023-11-21T01:19:44.324Z,99290.03
2023-11-21T01:22:13.051Z,99295.19
2023-11-21T01:24:41.274Z,99298.63
2023-11-21T01:27:09.891Z,99295.13
2023-11-21T01:29:37.520Z,99306.22
2023-11-21T01:32:05.676Z,99299.38
2023-11-21T01:34:34.816Z,99303.59
2023-11-21T01:37:02.455Z,99303.59
2023-11-21T01:39:30.103Z,99302.81
2023-11-21T01:41:59.353Z,99301.09
2023-11-21T01:44:26.972Z,99299.31
2023-11-21T01:46:54.855Z,99301.09
2023-11-21T01:49:22.803Z,99301.13
2023-11-21T01:51:53.142Z,99292.59
2023-11-21T01:54:22.506Z,99306.22
2023-11-21T01:56:50.295Z,99311.34
2023-11-21T01:59:22.375Z,99307.88
2023-11-21T02:01:51.488Z,99306.22
2023-11-21T02:04:19.985Z,99309.59
2023-11-21T02:06:47.693Z,99299.31
2023-11-21T02:09:19.542Z,99302.66
2023-11-21T02:11:47.126Z,99300.91
2023-11-21T02:14:15.320Z,99309.50
2023-11-21T02:16:45.285Z,99311.28
2023-11-21T02:19:17.329Z,99308.56
2023-11-21T02:21:45.923Z,99309.38
2023-11-21T02:24:14.906Z,99314.53
2023-11-21T02:26:43.068Z,99307.66
2023-11-21T02:29:12.992Z,99312.66
2023-11-21T02:31:48.978Z,99309.78
2023-11-21T02:34:17.957Z,99312.25
2023-11-21T02:36:46.478Z,99310.50
2023-11-21T02:39:15.474Z,99301.00
2023-11-21T02:41:43.131Z,99302.59
2023-11-21T02:44:11.195Z,99294.75
2023-11-21T02:46:40.641Z,99298.94
2023-11-21T02:49:08.572Z,99296.31
2023-11-21T02:51:37.070Z,99304.75
2023-11-21T02:54:07.653Z,99297.81
2023-11-21T02:56:38.472Z,99292.69
2023-11-21T02:59:06.248Z,99292.75
2023-11-21T03:01:34.074Z,99288.38
2023-11-21T03:04:02.766Z,99298.56
2023-11-21T03:06:30.488Z,99292.66
2023-11-21T03:08:58.108Z,99292.75
2023-11-21T03:11:25.752Z,99284.09
2023-11-21T03:13:54.863Z,99282.44
2023-11-21T03:16:22.673Z,99285.81
2023-11-21T03:18:50.490Z,99287.56
2023-11-21T03:21:18.161Z,99292.69
2023-11-21T03:23:46.132Z,99290.97
2023-11-21T03:26:14.859Z,99289.31
2023-11-21T03:28:42.571Z,99294.47
2023-11-21T03:31:11.723Z,99290.97
2023-11-21T03:33:39.430Z,99297.81
2023-11-21T03:36:08.892Z,99296.19
2023-11-21T03:38:36.531Z,99296.19
2023-11-21T03:41:04.222Z,99294.50
2023-11-21T03:43:31.844Z,99298.84
2023-11-21T03:45:59.539Z,99294.59
2023-11-21T03:48:28.710Z,99297.13
2023-11-21T03:50:56.420Z,99291.19
2023-11-21T03:53:24.107Z,99293.72
2023-11-21T03:55:51.913Z,99292.78
2023-11-21T03:58:19.912Z,99295.38
2023-11-21T04:00:50.063Z,99306.50
2023-11-21T04:03:17.846Z,99304.75
2023-11-21T04:05:47.132Z,99297.06
2023-11-21T04:08:14.895Z,99304.84
2023-11-21T04:10:43.207Z,99299.72
2023-11-21T04:13:11.542Z,99309.13
2023-11-21T04:15:39.155Z,99311.63
2023-11-21T04:18:06.930Z,99311.69
2023-11-21T04:20:34.873Z,99311.78
2023-11-21T04:23:04.395Z,99311.81
2023-11-21T04:25:31.964Z,99317.06
2023-11-21T04:27:59.565Z,99320.47
2023-11-21T04:30:27.184Z,99322.16
2023-11-21T04:32:54.771Z,99328.22
2023-11-21T04:35:22.392Z,99332.47
2023-11-21T04:37:49.987Z,99335.88
2023-11-21T04:40:19.137Z,99333.44
2023-11-21T04:42:47.731Z,99329.13
2023-11-21T04:45:15.317Z,99336.81
2023-11-21T04:47:44.703Z,99343.69
2023-11-21T04:50:12.393Z,99339.38
2023-11-21T04:52:40.150Z,99336.00
2023-11-21T04:55:11.088Z,99339.38
2023-11-21T04:57:40.477Z,99341.09
2023-11-21T05:00:09.740Z,99346.22
2023-11-21T05:02:37.413Z,99346.47
2023-11-21T05:05:07.011Z,99349.88
2023-11-21T05:07:36.829Z,99348.09
2023-11-21T05:10:08.953Z,99350.75
2023-11-21T05:12:40.662Z,99354.94
2023-11-21T05:15:11.832Z,99358.44
2023-11-21T05:17:43.226Z,99351.69
2023-11-21T05:20:12.609Z,99356.63
2023-11-21T05:22:40.259Z,99359.91
2023-11-21T05:25:09.438Z,99358.22
2023-11-21T05:27:37.163Z,99362.44
2023-11-21T05:30:06.500Z,99364.97
2023-11-21T05:32:36.050Z,99364.91
2023-11-21T05:35:03.806Z,99366.66
2023-11-21T05:37:31.716Z,99370.19
2023-11-21T05:39:59.293Z,99376.09
2023-11-21T05:42:26.908Z,99387.13
2023-11-21T05:44:54.539Z,99375.91
2023-11-21T05:47:23.059Z,99382.81
2023-11-21T05:49:53.129Z,99388.00
2023-11-21T05:52:21.709Z,99382.88
2023-11-21T05:54:49.348Z,99387.13
2023-11-21T05:57:16.966Z,99391.41
2023-11-21T05:59:44.690Z,99389.72
2023-11-21T06:02:12.393Z,99394.78
2023-11-21T06:04:40.212Z,99394.81
2023-11-21T06:07:09.601Z,99399.06
2023-11-21T06:09:38.361Z,99399.06
2023-11-21T06:12:06.796Z,99399.06
2023-11-21T06:14:36.350Z,99400.59
2023-11-21T06:17:05.070Z,99408.19
2023-11-21T06:19:32.779Z,99414.03
2023-11-21T06:22:00.683Z,99407.19
2023-11-21T06:24:29.951Z,99414.13
2023-11-21T06:26:57.599Z,99419.09
2023-11-21T06:29:25.209Z,99422.50
2023-11-21T06:31:52.999Z,99424.31
2023-11-21T06:34:21.157Z,99424.22
2023-11-21T06:36:48.747Z,99420.00
2023-11-21T06:39:18.021Z,99422.56
2023-11-21T06:41:47.008Z,99426.84
2023-11-21T06:44:14.812Z,99424.16
2023-11-21T06:46:43.625Z,99431.13
2023-11-21T06:49:12.131Z,99437.13
2023-11-21T06:51:39.791Z,99431.16
2023-11-21T06:54:08.305Z,99435.63
2023-11-21T06:56:36.880Z,99438.47
2023-11-21T06:59:06.740Z,99438.59
2023-11-21T07:01:39.762Z,99447.34
2023-11-21T07:04:07.765Z,99444.88
2023-11-21T07:06:35.457Z,99449.19
2023-11-21T07:09:04.352Z,99457.75
2023-11-21T07:11:32.110Z,99461.00
2023-11-21T07:13:59.841Z,99458.38
2023-11-21T07:16:28.909Z,99465.25
2023-11-21T07:18:57.086Z,99473.16
2023-11-21T07:21:25.525Z,99475.69
2023-11-21T07:23:53.224Z,99486.84
2023-11-21T07:26:20.897Z,99482.50
2023-11-21T07:28:48.565Z,99479.81
2023-11-21T07:31:16.206Z,99478.69
2023-11-21T07:33:45.221Z,99486.63
2023-11-21T07:36:13.006Z,99491.63
2023-11-21T07:38:41.031Z,99484.66
2023-11-21T07:41:19.067Z,99503.53
2023-11-21T07:43:53.548Z,99508.53
2023-11-21T07:46:22.143Z,99501.75
2023-11-21T07:48:51.203Z,99502.81
2023-11-21T07:51:18.800Z,99503.75
2023-11-21T07:53:46.438Z,99510.47
2023-11-21T07:56:14.206Z,99512.88
2023-11-21T07:58:42.035Z,99508.63
2023-11-21T08:01:10.052Z,99512.16
2023-11-21T08:03:37.754Z,99517.94
2023-11-21T08:06:07.585Z,99522.28
2023-11-21T08:08:35.229Z,99513.75
2023-11-21T08:11:04.849Z,99522.44
2023-11-21T08:13:32.754Z,99525.25
2023-11-21T08:16:03.887Z,99519.38
2023-11-21T08:18:31.782Z,99526.81
2023-11-21T08:20:59.588Z,99528.47
2023-11-21T08:23:29.520Z,99529.38
2023-11-21T08:25:57.452Z,99531.88
2023-11-21T08:28:26.823Z,99539.84
2023-11-21T08:30:55.165Z,99536.75
2023-11-21T08:33:22.772Z,99546.31
2023-11-21T08:35:51.447Z,99548.47
2023-11-21T08:38:19.541Z,99552.69
2023-11-21T08:40:48.519Z,99553.53
2023-11-21T08:43:17.453Z,99553.28
2023-11-21T08:45:45.104Z,99550.53
2023-11-21T08:48:13.317Z,99552.97
2023-11-21T08:50:40.870Z,99554.56
2023-11-21T08:53:08.510Z,99556.22
2023-11-21T08:55:38.525Z,99551.75
2023-11-21T08:58:07.837Z,99560.75
2023-11-21T09:00:35.530Z,99562.28
2023-11-21T09:03:03.692Z,99563.25
2023-11-21T09:05:31.294Z,99571.16
2023-11-21T09:07:58.954Z,99560.34
2023-11-21T09:10:26.958Z,99565.25
2023-11-21T09:12:54.563Z,99570.41
2023-11-21T09:15:23.591Z,99576.38
2023-11-21T09:17:51.259Z,99578.06
2023-11-21T09:20:18.912Z,99582.38
2023-11-21T09:22:47.485Z,99576.47
2023-11-21T09:25:15.445Z,99599.72
2023-11-21T09:27:43.095Z,99602.47
2023-11-21T09:30:11.864Z,99601.47
2023-11-21T09:32:41.530Z,99601.56
2023-11-21T09:35:10.292Z,99612.91
2023-11-21T09:37:39.095Z,99611.22
2023-11-21T09:40:13.582Z,99609.84
2023-11-21T09:42:44.828Z,99612.41
2023-11-21T09:45:21.044Z,99615.91
2023-11-21T09:47:50.416Z,99614.28
2023-11-21T09:50:19.955Z,99622.00
2023-11-21T09:52:56.831Z,99630.66
2023-11-21T09:55:27.819Z,99629.78
2023-11-21T09:57:57.958Z,99627.25
2023-11-21T10:00:25.853Z,99627.94
2023-11-21T10:02:56.174Z,99633.06
2023-11-21T10:05:26.109Z,99627.16
2023-11-21T10:07:58.387Z,99626.56
2023-11-21T10:10:27.777Z,99632.81
2023-11-21T10:12:58.363Z,99635.50
2023-11-21T10:15:27.203Z,99633.88
2023-11-21T10:17:57.382Z,99630.28
2023-11-21T10:20:25.831Z,99631.47
2023-11-21T10:22:53.456Z,99639.97
2023-11-21T10:25:21.687Z,99624.94
2023-11-21T10:27:52.252Z,99625.41
2023-11-21T10:30:20.445Z,99625.41
2023-11-21T10:32:48.727Z,99625.41
2023-11-21T10:35:17.745Z,99633.81
2023-11-21T10:37:45.535Z,99638.03
2023-11-21T10:40:14.203Z,99638.75
2023-11-21T10:42:42.831Z,99638.66
2023-11-21T10:45:14.400Z,99638.41
2023-11-21T10:47:44.187Z,99640.69
2023-11-21T10:50:13.164Z,99643.09
2023-11-21T10:52:44.515Z,99642.91
2023-11-21T10:55:20.150Z,99647.25
2023-11-21T10:57:50.535Z,99648.16
2023-11-21T11:00:21.504Z,99648.91
2023-11-21T11:02:51.686Z,99650.50
2023-11-21T11:05:21.906Z,99647.94
2023-11-21T11:07:55.507Z,99652.91
2023-11-21T11:10:27.225Z,99654.69
2023-11-21T11:12:56.401Z,99658.06
2023-11-21T11:15:24.232Z,99659.84
2023-11-21T11:17:52.058Z,99663.09
2023-11-21T11:20:21.738Z,99664.69
2023-11-21T11:23:01.400Z,99664.53
2023-11-21T11:25:50.063Z,99664.34
2023-11-21T11:28:24.666Z,99661.78
2023-11-21T11:31:06.718Z,99667.63
2023-11-21T11:33:41.795Z,99660.75
2023-11-21T11:36:19.387Z,99658.25
2023-11-21T11:38:50.678Z,99660.00
2023-11-21T11:41:27.788Z,99660.13
2023-11-21T11:43:55.523Z,99659.25
2023-11-21T11:46:42.909Z,99658.44
2023-11-21T11:49:10.923Z,99666.94
2023-11-21T11:51:38.630Z,99672.03
2023-11-21T11:54:08.817Z,99672.81
2023-11-21T11:56:38.354Z,99676.16
2023-11-21T11:59:10.014Z,99680.28
2023-11-21T12:01:37.765Z,99672.75
2023-11-21T12:04:32.665Z,99664.34
2023-11-21T12:07:04.580Z,99672.06
2023-11-21T12:09:33.996Z,99667.84
2023-11-21T12:12:02.172Z,99667.97
2023-11-21T12:14:29.960Z,99668.84
2023-11-21T12:16:57.658Z,99668.97
2023-11-21T12:19:25.428Z,99673.84
2023-11-21T12:21:53.283Z,99676.44
2023-11-21T12:24:20.836Z,99691.13
2023-11-21T12:26:49.773Z,99675.69
2023-11-21T12:29:17.801Z,99672.28
2023-11-21T12:31:47.155Z,99675.84
2023-11-21T12:34:14.842Z,99680.94
2023-11-21T12:36:42.466Z,99681.06
2023-11-21T12:39:11.780Z,99686.22
2023-11-21T12:41:39.463Z,99694.44
2023-11-21T12:44:16.347Z,99699.69
2023-11-21T12:46:46.206Z,99708.25
2023-11-21T12:49:18.252Z,99703.09
2023-11-21T12:51:46.957Z,99699.56
2023-11-21T12:54:15.022Z,99713.22
2023-11-21T12:56:42.742Z,99704.69
2023-11-21T12:59:15.558Z,99709.97
2023-11-21T13:01:44.574Z,99713.31
2023-11-21T13:04:12.887Z,99712.53
2023-11-21T13:06:42.109Z,99713.47
2023-11-21T13:09:11.570Z,99716.00
2023-11-21T13:11:41.895Z,99719.41
2023-11-21T13:14:12.159Z,99722.75
2023-11-21T13:16:46.886Z,99724.31
2023-11-21T13:19:14.833Z,99716.50
2023-11-21T13:21:42.504Z,99725.06
2023-11-21T13:24:11.176Z,99720.84
2023-11-21T13:26:38.729Z,99732.06
2023-11-21T13:29:06.549Z,99727.94
2023-11-21T13:31:37.719Z,99734.13
2023-11-21T13:34:09.257Z,99730.84
2023-11-21T13:36:37.397Z,99740.28
2023-11-21T13:39:09.003Z,99741.34
2023-11-21T13:41:39.093Z,99738.00
2023-11-21T13:44:16.864Z,99737.31
2023-11-21T13:46:46.681Z,99743.53
2023-11-21T13:49:17.188Z,99742.78
2023-11-21T13:51:46.440Z,99736.97
2023-11-21T13:54:14.346Z,99743.97
2023-11-21T13:56:45.707Z,99749.41
2023-11-21T13:59:24.705Z,99740.31
2023-11-21T14:02:00.560Z,99749.13
2023-11-21T14:04:55.491Z,99741.59
2023-11-21T14:07:31.337Z,99753.91
2023-11-21T14:09:59.510Z,99753.38
2023-11-21T14:12:27.091Z,99757.91
2023-11-21T14:14:56.082Z,99764.16
2023-11-21T14:17:25.305Z,99771.72
2023-11-21T14:19:56.592Z,99775.09
2023-11-21T14:22:26.764Z,99781.94
2023-11-21T14:24:56.770Z,99778.31
2023-11-21T14:27:24.520Z,99791.78
2023-11-21T14:29:53.704Z,99792.47
2023-11-21T14:32:21.485Z,99805.28
2023-11-21T14:34:49.380Z,99789.78
2023-11-21T14:37:18.404Z,99801.53
2023-11-21T14:39:49.788Z,99806.69
2023-11-21T14:42:22.462Z,99811.81
2023-11-21T14:44:50.013Z,99812.38
2023-11-21T14:47:18.067Z,99814.84
2023-11-21T14:49:55.036Z,99815.72
2023-11-21T14:52:34.195Z,99816.38
2023-11-21T14:55:16.164Z,99825.78
2023-11-21T14:57:47.034Z,99828.19
2023-11-21T15:00:32.633Z,99827.22
2023-11-21T15:03:00.356Z,99833.13
2023-11-21T15:05:28.617Z,99826.22
2023-11-21T15:07:58.757Z,99829.66
2023-11-21T15:10:39.242Z,99833.91
2023-11-21T15:13:06.077Z,99835.56
2023-11-21T15:15:35.649Z,99840.56
2023-11-21T15:18:03.656Z,99843.88
2023-11-21T15:20:32.233Z,99853.22
2023-11-21T15:23:01.638Z,99860.06
2023-11-21T15:25:29.329Z,99854.91
2023-11-21T15:27:57.100Z,99867.59
2023-11-21T15:30:26.389Z,99870.09
2023-11-21T15:32:54.816Z,99865.84
2023-11-21T15:35:22.557Z,99868.41
2023-11-21T15:37:50.141Z,99868.41
2023-11-21T15:40:19.106Z,99870.00
2023-11-21T15:42:46.975Z,99864.75
2023-11-21T15:45:14.661Z,99867.22
2023-11-21T15:47:42.331Z,99861.94
2023-11-21T15:50:11.571Z,99870.34
2023-11-21T15:52:56.447Z,99866.75
2023-11-21T15:55:27.949Z,99872.63
2023-11-21T15:57:55.619Z,99869.97
2023-11-21T16:00:25.216Z,99872.47
2023-11-21T16:02:55.588Z,99875.84
2023-11-21T16:05:25.338Z,99874.13
2023-11-21T16:07:52.959Z,99878.28
2023-11-21T16:10:20.638Z,99887.56
2023-11-21T16:12:49.594Z,99889.16
2023-11-21T16:15:19.159Z,99889.09
2023-11-21T16:17:46.972Z,99895.00
2023-11-21T16:20:16.140Z,99902.53
2023-11-21T16:22:43.842Z,99905.84
2023-11-21T16:25:14.016Z,99893.72
2023-11-21T16:27:43.209Z,99897.84
2023-11-21T16:30:13.511Z,99903.66
2023-11-21T16:32:41.398Z,99909.53
2023-11-21T16:35:11.084Z,99916.19
2023-11-21T16:37:38.794Z,99923.78
2023-11-21T16:40:09.714Z,99926.22
2023-11-21T16:42:39.276Z,99928.66
2023-11-21T16:45:08.911Z,99931.09
2023-11-21T16:47:38.853Z,99947.19
2023-11-21T16:50:07.410Z,99947.00
2023-11-21T16:52:35.095Z,99948.56
2023-11-21T16:55:02.737Z,99952.66
2023-11-21T16:57:30.577Z,99958.63
2023-11-21T16:59:58.583Z,99972.22
2023-11-21T17:02:26.425Z,99971.91
2023-11-21T17:04:55.435Z,99973.56
2023-11-21T17:07:24.032Z,99975.22
2023-11-21T17:09:52.719Z,99976.78
2023-11-21T17:12:20.399Z,99984.31
2023-11-21T17:14:50.038Z,99985.00
2023-11-21T17:17:18.070Z,99990.03
2023-11-21T17:19:46.039Z,99997.56
2023-11-21T17:22:16.244Z,99996.66
2023-11-21T17:24:44.978Z,99998.25
2023-11-21T17:27:12.666Z,99998.91
2023-11-21T17:29:40.694Z,100009.88
2023-11-21T17:32:08.912Z,100006.34
2023-11-21T17:34:36.617Z,100009.63
2023-11-21T17:37:05.144Z,100006.09
2023-11-21T17:39:34.070Z,100018.00
2023-11-21T17:42:02.608Z,100017.09
2023-11-21T17:44:30.237Z,100024.72
2023-11-21T17:46:58.195Z,100028.13
2023-11-21T17:49:27.365Z,100032.47
2023-11-21T17:51:56.145Z,100038.53
2023-11-21T17:54:24.384Z,100038.53
2023-11-21T17:56:53.518Z,100043.66
2023-11-21T17:59:21.197Z,100042.91
2023-11-21T18:01:49.174Z,100048.78
2023-11-21T18:04:16.957Z,100055.66
2023-11-21T18:06:45.501Z,100055.88
2023-11-21T18:09:13.317Z,100057.53
2023-11-21T18:11:40.935Z,100049.84
2023-11-21T18:14:11.700Z,100056.63
2023-11-21T18:16:40.147Z,100060.78
2023-11-21T18:19:09.530Z,100071.88
2023-11-21T18:21:41.528Z,100071.03
2023-11-21T18:24:10.523Z,100068.63
2023-11-21T18:26:38.480Z,100069.53
2023-11-21T18:29:06.454Z,100068.72
2023-11-21T18:31:35.446Z,100067.91
2023-11-21T18:34:03.109Z,100073.06
2023-11-21T18:36:30.714Z,100078.19
2023-11-21T18:38:59.002Z,100074.59
2023-11-21T18:41:26.632Z,100081.44
2023-11-21T18:43:54.925Z,100083.03
2023-11-21T18:46:23.084Z,100089.81
2023-11-21T18:48:53.140Z,100085.72
2023-11-21T18:51:20.852Z,100096.69
2023-11-21T18:53:48.515Z,100112.94
2023-11-21T18:56:25.451Z,100112.03
2023-11-21T18:58:53.736Z,100112.06
2023-11-21T19:01:28.733Z,100113.06
2023-11-21T19:03:58.908Z,100121.66
2023-11-21T19:06:27.580Z,100123.47
2023-11-21T19:08:55.668Z,100119.22
2023-11-21T19:11:24.238Z,100130.22
2023-11-21T19:13:54.245Z,100125.09
2023-11-21T19:16:22.396Z,100132.78
2023-11-21T19:18:50.983Z,100142.31
2023-11-21T19:21:20.761Z,100139.75
2023-11-21T19:23:49.702Z,100139.75
2023-11-21T19:26:17.384Z,100148.22
2023-11-21T19:28:45.224Z,100149.88
2023-11-21T19:31:17.469Z,100157.53
2023-11-21T19:33:45.639Z,100163.56
2023-11-21T19:36:13.418Z,100157.63
2023-11-21T19:38:43.219Z,100158.56
2023-11-21T19:41:14.942Z,100168.00
2023-11-21T19:43:42.779Z,100169.69
2023-11-21T19:46:10.483Z,100171.41
2023-11-21T19:48:38.509Z,100178.22
2023-11-21T19:51:06.302Z,100171.31
2023-11-21T19:53:37.849Z,100173.88
2023-11-21T19:56:10.405Z,100178.25
2023-11-21T19:58:38.482Z,100187.66
2023-11-21T20:01:06.111Z,100189.28
2023-11-21T20:03:36.073Z,100193.53
2023-11-21T20:06:05.086Z,100194.41
2023-11-21T20:08:35.451Z,100194.53
2023-11-21T20:11:03.167Z,100186.13
2023-11-21T20:13:32.346Z,100201.63
2023-11-21T20:16:00.506Z,100200.75
2023-11-21T20:18:28.235Z,100211.78
2023-11-21T20:20:57.072Z,100214.19
2023-11-21T20:23:25.845Z,100223.53
2023-11-21T20:25:58.671Z,100220.97
2023-11-21T20:28:27.268Z,100219.44
2023-11-21T20:30:58.165Z,100224.34
2023-11-21T20:33:26.283Z,100225.63
2023-11-21T20:35:53.954Z,100233.31
2023-11-21T20:38:23.643Z,100229.94
2023-11-21T20:40:51.363Z,100226.44
2023-11-21T20:43:18.980Z,100229.84
2023-11-21T20:45:46.561Z,100228.06
2023-11-21T20:48:16.039Z,100233.28
2023-11-21T20:50:44.291Z,100231.44
2023-11-21T20:53:12.441Z,100234.75
2023-11-21T20:55:40.409Z,100232.09
2023-11-21T20:58:09.176Z,100233.84
2023-11-21T21:00:36.957Z,100232.19
2023-11-21T21:03:07.622Z,100241.50
2023-11-21T21:05:37.348Z,100232.88
2023-11-21T21:08:05.649Z,100238.94
2023-11-21T21:10:33.310Z,100236.38
2023-11-21T21:13:00.945Z,100238.09
2023-11-21T21:15:29.070Z,100233.94
2023-11-21T21:17:57.219Z,100234.75
2023-11-21T21:20:25.197Z,100231.22
2023-11-21T21:22:54.387Z,100236.28
2023-11-21T21:25:22.078Z,100243.03
2023-11-21T21:27:50.805Z,100243.88
2023-11-21T21:30:19.352Z,100242.31
2023-11-21T21:32:48.123Z,100237.22
2023-11-21T21:35:16.458Z,100245.94
2023-11-21T21:37:44.541Z,100246.75
2023-11-21T21:40:13.832Z,100241.63
2023-11-21T21:42:41.416Z,100243.38
2023-11-21T21:45:09.915Z,100239.75
2023-11-21T21:47:37.549Z,100239.06
2023-11-21T21:50:06.018Z,100244.06
2023-11-21T21:52:37.602Z,100244.00
2023-11-21T21:55:06.918Z,100241.50
2023-11-21T21:57:35.914Z,100238.88
2023-11-21T22:00:03.610Z,100239.75
2023-11-21T22:02:39.704Z,100244.88
2023-11-21T22:05:11.093Z,100238.88
2023-11-21T22:07:39.824Z,100242.28
2023-11-21T22:10:09.081Z,100239.81
2023-11-21T22:12:38.191Z,100238.94
2023-11-21T22:15:06.610Z,100243.25
2023-11-21T22:17:34.327Z,100244.09
2023-11-21T22:20:01.997Z,100248.50
2023-11-21T22:22:29.713Z,100254.50
2023-11-21T22:24:57.342Z,100256.28
2023-11-21T22:27:25.084Z,100262.31
2023-11-21T22:29:54.105Z,100265.63
2023-11-21T22:32:22.862Z,100269.03
2023-11-21T22:34:50.504Z,100270.69
2023-11-21T22:37:18.461Z,100278.44
2023-11-21T22:39:46.579Z,100274.91
2023-11-21T22:42:14.272Z,100277.56
2023-11-21T22:44:43.850Z,100277.66
2023-11-21T22:47:13.072Z,100279.38
2023-11-21T22:49:40.812Z,100281.25
2023-11-21T22:52:08.545Z,100283.00
2023-11-21T22:54:36.354Z,100274.50
2023-11-21T22:57:04.144Z,100277.00
2023-11-21T22:59:31.898Z,100288.13
2023-11-21T23:01:59.625Z,100295.03
2023-11-21T23:04:28.680Z,100292.47
2023-11-21T23:06:56.316Z,100305.19
2023-11-21T23:09:24.223Z,100301.78
2023-11-21T23:11:51.862Z,100300.19
2023-11-21T23:14:19.583Z,100296.66
2023-11-21T23:16:49.414Z,100305.06
2023-11-21T23:19:18.430Z,100302.50
2023-11-21T23:21:47.388Z,100309.41
2023-11-21T23:24:20.434Z,100305.78
2023-11-21T23:26:49.414Z,100319.44
2023-11-21T23:29:16.936Z,100318.47
2023-11-21T23:31:44.882Z,100315.00
2023-11-21T23:34:12.977Z,100321.88
2023-11-21T23:36:40.955Z,100326.97
2023-11-21T23:39:09.914Z,100324.91
2023-11-21T23:41:37.518Z,100321.16
2023-11-21T23:44:05.761Z,100324.31
2023-11-21T23:46:35.404Z,100332.59
2023-11-21T23:49:04.865Z,100326.41
2023-11-21T23:51:32.539Z,100334.06
2023-11-21T23:54:00.256Z,100326.81
2023-11-21T23:56:29.281Z,100323.06
2023-11-21T23:58:57.621Z,100324.44
